Time;durP1;ratioP1;P1;durP2;ratioP2;P2;SDS_P1;SDS_P2;PMS_P1;PMS_P2;Temp;Humidity;BMP_temperature;BMP_pressure;BME280_temperature;BME280_humidity;BME280_pressure;Samples;Min_cycle;Max_cycle;Signal;HPM_P1;HPM_P2
2021/08/18 00:01:42;;;;;;;21.80;10.47;;;;;;;12.14;100.00;96381.34;5077581;28;20192;-77
2021/08/18 00:04:08;;;;;;;20.80;11.47;;;;;;;12.15;100.00;96380.38;5072433;28;20489;-78
2021/08/18 00:06:34;;;;;;;21.53;10.90;;;;;;;12.12;100.00;96386.00;5077124;28;20036;-78
2021/08/18 00:08:59;;;;;;;16.83;10.20;;;;;;;12.19;100.00;96386.97;5059026;28;20025;-77
2021/08/18 00:11:25;;;;;;;17.57;10.83;;;;;;;12.18;100.00;96380.06;5078612;28;20157;-77
2021/08/18 00:13:51;;;;;;;23.60;11.10;;;;;;;12.19;100.00;96382.53;5074681;28;20081;-77
2021/08/18 00:16:20;;;;;;;21.30;10.83;;;;;;;12.14;100.00;96381.34;5055252;28;20586;-78
2021/08/18 00:18:49;;;;;;;17.50;10.53;;;;;;;12.12;100.00;96392.09;5051134;28;20025;-79
2021/08/18 00:21:15;;;;;;;19.57;11.53;;;;;;;12.11;100.00;96384.34;5070202;28;20077;-78
2021/08/18 00:23:40;;;;;;;16.60;10.13;;;;;;;12.10;100.00;96386.13;5064784;28;20029;-77
2021/08/18 00:26:06;;;;;;;20.63;11.27;;;;;;;12.07;100.00;96383.81;5069258;28;20074;-78
2021/08/18 00:28:32;;;;;;;17.40;9.90;;;;;;;12.09;100.00;96386.31;5077660;28;20039;-77
2021/08/18 00:30:57;;;;;;;21.67;11.33;;;;;;;12.08;100.00;96387.31;5074465;28;20119;-78
2021/08/18 00:33:23;;;;;;;20.77;11.40;;;;;;;12.07;100.00;96389.09;5055469;28;20182;-78
2021/08/18 00:35:49;;;;;;;19.93;11.23;;;;;;;12.21;100.00;96388.47;5057632;28;20048;-78
2021/08/18 00:38:14;;;;;;;20.90;12.77;;;;;;;12.19;100.00;96392.25;5058928;28;20051;-78
2021/08/18 00:40:40;;;;;;;22.10;12.57;;;;;;;12.05;100.00;96395.56;5071902;28;20028;-78
2021/08/18 00:43:06;;;;;;;23.03;12.63;;;;;;;12.11;100.00;96394.91;5080884;28;20036;-77
2021/08/18 00:45:32;;;;;;;24.80;13.30;;;;;;;12.08;100.00;96390.78;5083373;28;20029;-78
2021/08/18 00:47:58;;;;;;;39.17;14.23;;;;;;;12.05;100.00;96395.56;5073486;28;20032;-78
2021/08/18 00:50:26;;;;;;;24.90;12.93;;;;;;;11.97;100.00;96399.84;5074049;28;20024;-78
2021/08/18 00:52:56;;;;;;;23.93;13.37;;;;;;;12.07;100.00;96390.91;5083495;28;20024;-77
2021/08/18 00:55:25;;;;;;;24.80;13.57;;;;;;;11.94;100.00;96400.16;5083675;28;20035;-78
2021/08/18 00:57:52;;;;;;;22.77;13.33;;;;;;;12.01;100.00;96397.69;5059483;28;20020;-78
2021/08/18 01:00:19;;;;;;;24.13;14.23;;;;;;;11.99;100.00;96392.56;5069070;28;20043;-77
2021/08/18 01:02:46;;;;;;;24.10;13.20;;;;;;;11.98;100.00;96404.09;5072502;28;20812;-78
2021/08/18 01:05:20;;;;;;;26.07;13.73;;;;;;;11.95;100.00;96391.25;5070249;28;20059;-78
2021/08/18 01:07:47;;;;;;;27.17;14.40;;;;;;;11.89;100.00;96391.91;5078489;28;20448;-76
2021/08/18 01:10:17;;;;;;;25.73;14.37;;;;;;;11.87;100.00;96391.25;5075264;28;20074;-78
2021/08/18 01:12:43;;;;;;;28.07;14.37;;;;;;;11.86;100.00;96397.50;5077946;28;20062;-78
2021/08/18 01:15:17;;;;;;;26.83;14.40;;;;;;;11.92;100.00;96391.56;5071819;28;20043;-79
2021/08/18 01:17:49;;;;;;;26.83;15.20;;;;;;;11.84;100.00;96391.59;5068027;28;20025;-78
2021/08/18 01:20:18;;;;;;;31.03;15.30;;;;;;;11.89;100.00;96397.16;5077874;28;20036;-77
2021/08/18 01:22:44;;;;;;;27.93;14.53;;;;;;;11.89;100.00;96391.09;5083749;28;20020;-77
2021/08/18 01:25:12;;;;;;;23.07;12.37;;;;;;;11.92;100.00;96380.22;5080557;28;20043;-77
2021/08/18 01:27:43;;;;;;;22.87;11.97;;;;;;;11.89;100.00;96373.44;5075089;28;20036;-78
2021/08/18 01:30:10;;;;;;;26.13;13.67;;;;;;;11.89;100.00;96376.09;5066507;28;20028;-77
2021/08/18 01:32:47;;;;;;;23.97;12.33;;;;;;;11.84;100.00;96383.69;5082762;28;20052;-78
2021/08/18 01:35:24;;;;;;;23.20;12.20;;;;;;;11.88;100.00;96369.19;5072782;28;20047;-78
2021/08/18 01:37:51;;;;;;;25.00;12.93;;;;;;;11.90;100.00;96372.47;5075429;28;20031;-78
2021/08/18 01:40:18;;;;;;;23.83;12.97;;;;;;;11.94;100.00;96375.63;5095084;28;20036;-78
2021/08/18 01:42:44;;;;;;;24.67;12.40;;;;;;;11.96;100.00;96371.81;5080842;28;20075;-78
2021/08/18 01:45:11;;;;;;;22.63;11.67;;;;;;;11.95;100.00;96375.44;5059132;28;20028;-77
2021/08/18 01:47:37;;;;;;;21.30;11.47;;;;;;;11.95;100.00;96380.72;5080059;28;20025;-77
2021/08/18 01:50:04;;;;;;;19.13;10.50;;;;;;;11.89;100.00;96376.09;5091347;28;20017;-77
2021/08/18 01:52:30;;;;;;;20.90;11.57;;;;;;;11.91;100.00;96374.13;5100581;28;20028;-77
2021/08/18 01:54:56;;;;;;;20.03;10.93;;;;;;;11.92;100.00;96373.13;5072000;28;20025;-78
2021/08/18 01:57:21;;;;;;;21.40;12.10;;;;;;;11.86;100.00;96368.50;5090051;28;20089;-78
2021/08/18 01:59:47;;;;;;;21.60;11.23;;;;;;;11.83;100.00;96375.88;5073309;28;20095;-77
2021/08/18 02:02:13;;;;;;;21.03;11.80;;;;;;;11.83;100.00;96378.53;5067395;28;20111;-77
2021/08/18 02:04:38;;;;;;;26.57;13.60;;;;;;;11.88;100.00;96378.91;5099863;28;20043;-78
2021/08/18 02:07:04;;;;;;;22.10;11.30;;;;;;;11.88;100.00;96379.72;5056687;28;20055;-77
2021/08/18 02:09:30;;;;;;;21.30;10.83;;;;;;;11.90;100.00;96379.53;5081668;28;20059;-78
2021/08/18 02:11:55;;;;;;;22.53;11.93;;;;;;;11.97;100.00;96373.47;5077977;28;20096;-77
2021/08/18 02:14:21;;;;;;;20.53;11.70;;;;;;;11.95;100.00;96372.81;5087849;28;20024;-78
2021/08/18 02:16:47;;;;;;;25.43;12.00;;;;;;;11.90;100.00;96369.00;5086111;28;20028;-78
2021/08/18 02:19:12;;;;;;;22.30;11.67;;;;;;;11.86;100.00;96381.69;5091119;28;20125;-77
2021/08/18 02:21:38;;;;;;;21.20;11.93;;;;;;;11.89;100.00;96368.19;5085838;28;20404;-77
2021/08/18 02:24:04;;;;;;;23.20;12.07;;;;;;;11.79;100.00;96375.38;5082615;28;20036;-78
2021/08/18 02:26:30;;;;;;;19.70;11.23;;;;;;;11.91;100.00;96368.03;5075202;28;20036;-78
2021/08/18 02:28:55;;;;;;;19.63;11.30;;;;;;;11.82;100.00;96366.34;5076988;28;20029;-79
2021/08/18 02:31:21;;;;;;;23.53;12.53;;;;;;;11.86;100.00;96365.88;5087576;28;20025;-77
2021/08/18 02:33:47;;;;;;;20.53;11.57;;;;;;;11.85;100.00;96368.69;5083680;28;20101;-78
2021/08/18 02:36:13;;;;;;;22.67;12.03;;;;;;;11.90;100.00;96371.63;5080161;28;20040;-78
2021/08/18 02:38:38;;;;;;;22.70;11.97;;;;;;;11.84;100.00;96366.97;5083461;28;20092;-78
2021/08/18 02:41:04;;;;;;;21.80;12.10;;;;;;;11.85;100.00;96366.88;5069599;28;20106;-79
2021/08/18 02:43:30;;;;;;;22.43;12.43;;;;;;;11.82;100.00;96369.81;5068898;28;20044;-76
2021/08/18 02:45:55;;;;;;;23.83;12.93;;;;;;;11.84;100.00;96378.41;5078545;28;20440;-78
2021/08/18 02:48:21;;;;;;;23.87;12.60;;;;;;;11.86;100.00;96371.16;5070786;28;20029;-78
2021/08/18 02:50:47;;;;;;;23.27;13.57;;;;;;;11.85;100.00;96376.59;5085653;28;20032;-76
2021/08/18 02:53:14;;;;;;;27.43;13.93;;;;;;;11.87;100.00;96372.81;5088020;28;20548;-78
2021/08/18 02:55:39;;;;;;;24.50;12.93;;;;;;;11.83;100.00;96379.34;5067168;28;20444;-77
2021/08/18 02:58:05;;;;;;;29.00;15.23;;;;;;;11.87;100.00;96383.34;5075566;28;20065;-76
2021/08/18 03:00:31;;;;;;;23.07;14.30;;;;;;;11.87;100.00;96372.81;5088550;28;20032;-79
2021/08/18 03:02:58;;;;;;;25.13;13.33;;;;;;;11.83;100.00;96376.72;5084778;28;20067;-78
2021/08/18 03:05:23;;;;;;;29.37;14.10;;;;;;;11.83;100.00;96381.97;5077888;28;20086;-78
2021/08/18 03:07:49;;;;;;;28.03;14.00;;;;;;;11.83;100.00;96376.72;5075211;28;20039;-78
2021/08/18 03:10:15;;;;;;;26.90;14.53;;;;;;;11.79;100.00;96376.22;5074637;28;20028;-78
2021/08/18 03:12:41;;;;;;;27.00;14.47;;;;;;;11.79;100.00;96378.84;5077032;28;20060;-78
2021/08/18 03:15:07;;;;;;;33.30;15.43;;;;;;;11.80;100.00;96377.88;5077024;28;20020;-77
2021/08/18 03:17:33;;;;;;;34.83;17.57;;;;;;;11.83;100.00;96376.72;5081562;28;20020;-78
2021/08/18 03:19:59;;;;;;;31.10;15.13;;;;;;;11.87;100.00;96378.09;5078892;28;20033;-78
2021/08/18 03:22:25;;;;;;;30.77;16.10;;;;;;;11.83;100.00;96381.97;5078674;28;20020;-76
2021/08/18 03:24:50;;;;;;;28.00;14.57;;;;;;;11.79;100.00;96378.03;5070314;28;20098;-77
2021/08/18 03:27:16;;;;;;;23.50;14.30;;;;;;;11.88;100.00;96373.63;5088240;28;20043;-78
2021/08/18 03:29:42;;;;;;;27.40;15.17;;;;;;;11.88;100.00;96368.34;5063506;28;20058;-78
2021/08/18 03:32:08;;;;;;;31.20;16.77;;;;;;;11.80;100.00;96377.88;5064539;28;20048;-78
2021/08/18 03:34:33;;;;;;;29.33;14.20;;;;;;;11.85;100.00;96380.03;5082683;28;20016;-78
2021/08/18 03:36:59;;;;;;;26.33;15.03;;;;;;;11.89;100.00;96385.81;5079667;28;20044;-77
2021/08/18 03:39:25;;;;;;;27.40;15.37;;;;;;;11.94;100.00;96378.25;5081743;28;20178;-78
2021/08/18 03:41:51;;;;;;;32.27;16.87;;;;;;;11.90;100.00;96388.28;5084950;28;20040;-77
2021/08/18 03:44:16;;;;;;;31.63;16.03;;;;;;;11.95;100.00;96390.44;5078150;28;20115;-78
2021/08/18 03:46:42;;;;;;;28.63;15.87;;;;;;;11.94;100.00;96381.72;5072523;28;20058;-78
2021/08/18 03:49:08;;;;;;;34.00;16.27;;;;;;;11.94;100.00;96372.97;5065699;28;20496;-77
2021/08/18 03:51:34;;;;;;;27.90;15.77;;;;;;;11.95;100.00;96370.16;5081781;28;20024;-77
2021/08/18 03:53:59;;;;;;;28.73;16.13;;;;;;;11.91;100.00;96384.66;5075098;28;20020;-78
2021/08/18 03:56:25;;;;;;;31.23;16.93;;;;;;;11.99;100.00;96375.94;5082838;28;20119;-78
2021/08/18 03:58:51;;;;;;;28.60;15.00;;;;;;;11.95;100.00;96380.72;5073071;28;20051;-78
2021/08/18 04:01:16;;;;;;;29.63;16.17;;;;;;;11.96;100.00;96377.06;5077138;28;20028;-77
2021/08/18 04:03:42;;;;;;;30.50;15.33;;;;;;;12.02;100.00;96373.78;5074876;28;20032;-78
2021/08/18 04:06:08;;;;;;;29.87;15.07;;;;;;;11.95;100.00;96377.25;5079287;28;20037;-78
2021/08/18 04:08:34;;;;;;;31.10;16.03;;;;;;;11.95;100.00;96378.06;5057605;28;20078;-78
2021/08/18 04:10:59;;;;;;;32.17;16.07;;;;;;;12.01;100.00;96376.59;5058981;28;20611;-78
2021/08/18 04:13:25;;;;;;;30.60;15.83;;;;;;;12.02;100.00;96381.69;5083623;28;20032;-78
2021/08/18 04:15:51;;;;;;;25.60;13.40;;;;;;;11.95;100.00;96383.34;5072312;28;20060;-78
2021/08/18 04:18:16;;;;;;;25.67;14.27;;;;;;;11.98;100.00;96384.84;5078205;28;20060;-77
2021/08/18 04:20:42;;;;;;;28.77;14.93;;;;;;;11.98;100.00;96387.47;5077823;28;20032;-75
2021/08/18 04:23:08;;;;;;;23.80;13.60;;;;;;;12.04;100.00;96384.19;5077959;28;20027;-77
2021/08/18 04:25:34;;;;;;;26.20;13.80;;;;;;;12.03;100.00;96382.50;5060010;28;20462;-76
2021/08/18 04:28:01;;;;;;;23.87;12.73;;;;;;;11.99;100.00;96376.75;5068330;28;20066;-78
2021/08/18 04:30:27;;;;;;;23.50;13.00;;;;;;;11.99;100.00;96387.28;5087320;28;20031;-78
2021/08/18 04:32:52;;;;;;;21.27;11.93;;;;;;;11.97;100.00;96378.75;5086704;28;20036;-77
2021/08/18 04:35:19;;;;;;;25.00;12.87;;;;;;;12.04;100.00;96386.81;5065466;28;20047;-78
2021/08/18 04:37:45;;;;;;;22.60;11.70;;;;;;;12.00;100.00;96386.31;5076643;28;20020;-79
2021/08/18 04:40:13;;;;;;;21.67;11.43;;;;;;;11.99;100.00;96386.47;5081663;28;20016;-77
2021/08/18 04:42:41;;;;;;;20.63;11.07;;;;;;;12.05;100.00;96379.72;5063197;28;20032;-78
2021/08/18 04:45:09;;;;;;;19.27;10.90;;;;;;;12.08;100.00;96385.50;5070226;28;20056;-79
2021/08/18 04:47:35;;;;;;;21.93;11.23;;;;;;;12.05;100.00;96387.63;5057427;28;20040;-78
2021/08/18 04:50:02;;;;;;;18.47;9.83;;;;;;;11.98;100.00;96388.28;5080118;28;20023;-79
2021/08/18 04:52:28;;;;;;;21.77;10.67;;;;;;;11.97;100.00;96389.28;5062687;28;20020;-76
2021/08/18 04:54:53;;;;;;;20.23;11.23;;;;;;;12.05;100.00;96382.38;5073745;28;20099;-77
2021/08/18 04:57:20;;;;;;;26.27;11.10;;;;;;;12.10;100.00;96388.78;5070218;28;20036;-78
2021/08/18 04:59:46;;;;;;;20.37;10.30;;;;;;;11.99;100.00;96387.28;5080183;28;20374;-78
2021/08/18 05:02:11;;;;;;;18.17;9.83;;;;;;;12.05;100.00;96392.91;5070007;28;20091;-77
2021/08/18 05:04:37;;;;;;;18.33;10.33;;;;;;;12.08;100.00;96389.94;5066460;28;20035;-78
2021/08/18 05:07:03;;;;;;;17.30;10.83;;;;;;;12.00;100.00;96393.38;5054497;28;20406;-78
2021/08/18 05:09:29;;;;;;;22.73;10.73;;;;;;;12.03;100.00;96393.06;5078362;28;20120;-79
2021/08/18 05:11:56;;;;;;;21.93;12.13;;;;;;;12.00;100.00;96396.88;5063506;28;20095;-78
2021/08/18 05:14:24;;;;;;;22.00;12.03;;;;;;;12.08;100.00;96395.22;5057311;28;20016;-78
2021/08/18 05:16:50;;;;;;;21.67;10.90;;;;;;;12.09;100.00;96404.78;5073496;28;20024;-78
2021/08/18 05:19:16;;;;;;;17.90;10.67;;;;;;;12.06;100.00;96402.47;5052941;28;20028;-79
2021/08/18 05:21:42;;;;;;;19.97;11.23;;;;;;;12.13;100.00;96403.44;5078113;28;20036;-78
2021/08/18 05:24:08;;;;;;;18.77;10.10;;;;;;;12.07;100.00;96415.47;5085774;28;20032;-79
2021/08/18 05:26:34;;;;;;;19.97;10.53;;;;;;;12.06;100.00;96415.63;5084072;28;20042;-78
2021/08/18 05:29:00;;;;;;;20.63;9.63;;;;;;;12.09;100.00;96408.22;5087568;28;20054;-78
2021/08/18 05:31:29;;;;;;;19.53;10.17;;;;;;;12.08;100.00;96414.50;5075688;28;20020;-78
2021/08/18 05:33:55;;;;;;;18.63;9.93;;;;;;;12.05;100.00;96412.19;5065459;28;20032;-77
2021/08/18 05:36:28;;;;;;;14.57;9.10;;;;;;;12.08;100.00;96411.03;5085467;28;20036;-77
2021/08/18 05:38:53;;;;;;;17.40;9.10;;;;;;;12.10;100.00;96415.13;5076791;28;20025;-79
2021/08/18 05:41:19;;;;;;;18.87;10.13;;;;;;;12.03;100.00;96414.97;5081169;28;20358;-78
2021/08/18 05:43:45;;;;;;;21.27;11.23;;;;;;;12.06;100.00;96418.28;5084763;28;20044;-76
2021/08/18 05:46:10;;;;;;;16.53;10.30;;;;;;;12.13;100.00;96411.34;5089328;28;20024;-78
2021/08/18 05:48:36;;;;;;;17.40;10.00;;;;;;;12.08;100.00;96411.03;5087200;28;20036;-79
2021/08/18 05:51:02;;;;;;;18.70;9.97;;;;;;;12.07;100.00;96409.38;5083469;28;20104;-77
2021/08/18 05:53:29;;;;;;;18.93;10.90;;;;;;;12.06;100.00;96415.63;5083297;28;20035;-78
2021/08/18 05:55:54;;;;;;;20.40;10.57;;;;;;;12.15;100.00;96409.38;5076209;28;20456;-78
2021/08/18 05:58:20;;;;;;;22.07;11.63;;;;;;;12.15;100.00;96404.94;5081426;28;20027;-78
2021/08/18 06:00:45;;;;;;;20.93;10.73;;;;;;;12.13;100.00;96414.00;5081394;28;20063;-79
2021/08/18 06:03:11;;;;;;;20.20;11.53;;;;;;;12.22;100.00;96405.09;5078897;28;20039;-79
2021/08/18 06:05:37;;;;;;;20.03;11.47;;;;;;;12.27;100.00;96405.41;5089861;28;20036;-78
2021/08/18 06:08:04;;;;;;;21.10;12.73;;;;;;;12.27;100.00;96401.00;5078165;28;20040;-78
2021/08/18 06:10:30;;;;;;;18.40;10.67;;;;;;;12.26;100.00;96403.78;5078272;28;20041;-76
2021/08/18 06:12:57;;;;;;;19.83;11.30;;;;;;;12.34;100.00;96408.22;5074237;28;20029;-77
2021/08/18 06:15:22;;;;;;;18.60;10.83;;;;;;;12.30;100.00;96409.53;5080036;28;20067;-77
2021/08/18 06:17:48;;;;;;;23.27;11.70;;;;;;;12.33;100.00;96412.66;5056941;28;20028;-76
2021/08/18 06:20:18;;;;;;;19.47;11.03;;;;;;;12.31;100.00;96414.66;5084008;28;20412;-76
2021/08/18 06:22:45;;;;;;;22.53;11.57;;;;;;;12.27;100.00;96408.03;5069686;28;20068;-76
2021/08/18 06:25:11;;;;;;;20.30;10.27;;;;;;;12.29;100.00;96406.09;5069960;28;20029;-76
2021/08/18 06:27:36;;;;;;;20.13;11.10;;;;;;;12.35;100.00;96408.06;5073397;28;20044;-76
2021/08/18 06:30:02;;;;;;;16.63;10.60;;;;;;;12.45;100.00;96403.44;5084437;28;20069;-76
2021/08/18 06:32:28;;;;;;;17.57;10.27;;;;;;;12.46;100.00;96399.81;5075557;28;20066;-76
2021/08/18 06:34:54;;;;;;;16.20;9.60;;;;;;;12.55;100.00;96397.16;5089070;28;20032;-76
2021/08/18 06:37:20;;;;;;;16.53;9.87;;;;;;;12.52;100.00;96393.03;5071504;28;20112;-76
2021/08/18 06:39:46;;;;;;;17.80;10.43;;;;;;;12.48;100.00;96400.47;5068438;28;20056;-76
2021/08/18 06:42:12;;;;;;;18.20;8.83;;;;;;;12.59;100.00;96403.75;5066592;28;20664;-76
2021/08/18 06:44:38;;;;;;;19.57;9.50;;;;;;;12.53;100.00;96405.22;5061410;28;20027;-76
2021/08/18 06:47:05;;;;;;;19.87;10.30;;;;;;;12.55;100.00;96397.16;5083107;28;20096;-76
2021/08/18 06:49:31;;;;;;;14.20;8.70;;;;;;;12.65;100.00;96403.09;5077012;28;20119;-77
2021/08/18 06:51:57;;;;;;;14.63;8.73;;;;;;;12.79;100.00;96399.75;5077001;28;20100;-77
2021/08/18 06:54:23;;;;;;;20.90;9.47;;;;;;;12.79;100.00;96407.66;5050313;28;20103;-75
2021/08/18 06:56:57;;;;;;;15.53;7.83;;;;;;;12.86;100.00;96411.28;5086626;28;20065;-76
2021/08/18 06:59:33;;;;;;;13.03;7.80;;;;;;;12.95;100.00;96409.44;5084508;28;20032;-75
2021/08/18 07:02:32;;;;;;;16.93;9.57;;;;;;;12.96;100.00;96408.44;5092358;28;20052;-79
2021/08/18 07:05:04;;;;;;;14.13;7.70;;;;;;;12.90;100.00;96412.56;5073105;28;20498;-76
2021/08/18 07:07:30;;;;;;;16.00;8.57;;;;;;;12.81;100.00;96410.97;5079661;28;20028;-76
2021/08/18 07:09:56;;;;;;;15.33;8.17;;;;;;;12.93;100.00;96411.41;5075472;28;20089;-78
2021/08/18 07:12:21;;;;;;;15.27;8.60;;;;;;;12.96;100.00;96401.34;5067521;28;20038;-77
2021/08/18 07:14:47;;;;;;;14.80;7.57;;;;;;;12.97;100.00;96413.53;5088415;28;20104;-77
2021/08/18 07:17:13;;;;;;;14.63;8.83;;;;;;;13.11;100.00;96404.13;5078582;28;20138;-77
2021/08/18 07:19:38;;;;;;;16.33;9.57;;;;;;;13.08;100.00;96408.91;5074033;28;20278;-76
2021/08/18 07:22:04;;;;;;;12.57;7.77;;;;;;;13.09;100.00;96416.66;5089624;28;20028;-76
2021/08/18 07:24:31;;;;;;;13.67;7.73;;;;;;;13.14;100.00;96416.94;5083657;28;20025;-81
2021/08/18 07:26:58;;;;;;;15.43;8.27;;;;;;;12.95;100.00;96418.19;5092339;28;20456;-78
2021/08/18 07:29:24;;;;;;;12.33;7.00;;;;;;;13.03;100.00;96416.50;5079266;28;20047;-79
2021/08/18 07:31:50;;;;;;;12.90;7.33;;;;;;;13.02;100.00;96420.16;5093796;28;20487;-79
2021/08/18 07:34:18;;;;;;;15.10;7.73;;;;;;;13.07;100.00;96423.91;5088143;28;20036;-81
2021/08/18 07:36:44;;;;;;;12.00;6.70;;;;;;;12.91;100.00;96418.66;5087303;28;20041;-76
2021/08/18 07:39:10;;;;;;;12.90;7.10;;;;;;;12.91;100.00;96430.09;5086533;28;20024;-79
2021/08/18 07:41:38;;;;;;;12.00;6.63;;;;;;;12.86;100.00;96432.38;5072945;28;20024;-79
2021/08/18 07:44:03;;;;;;;14.80;7.17;;;;;;;12.98;100.00;96431.06;5073886;28;20032;-78
2021/08/18 07:46:29;;;;;;;13.13;7.20;;;;;;;13.06;100.00;96432.84;5062238;28;20024;-78
2021/08/18 07:48:55;;;;;;;13.97;7.73;;;;;;;13.08;100.00;96436.13;5083442;28;20020;-78
2021/08/18 07:51:22;;;;;;;13.37;7.07;;;;;;;12.98;100.00;96431.06;5067885;28;20103;-79
2021/08/18 07:53:48;;;;;;;11.67;6.67;;;;;;;13.10;100.00;96439.41;5068091;28;20032;-78
2021/08/18 07:56:13;;;;;;;11.33;6.77;;;;;;;13.11;100.00;96435.81;5077691;28;20097;-80
2021/08/18 07:58:39;;;;;;;10.87;6.37;;;;;;;13.07;100.00;96436.28;5060762;28;20043;-79
2021/08/18 08:01:05;;;;;;;13.37;7.13;;;;;;;13.13;100.00;96441.72;5076627;28;20040;-79
2021/08/18 08:03:31;;;;;;;12.27;6.47;;;;;;;13.11;100.00;96440.22;5076031;28;20062;-79
2021/08/18 08:05:57;;;;;;;12.43;6.83;;;;;;;13.20;100.00;96433.94;5059701;28;20466;-79
2021/08/18 08:08:23;;;;;;;11.63;6.73;;;;;;;13.15;100.00;96441.56;5057968;28;20051;-80
2021/08/18 08:10:49;;;;;;;13.60;7.10;;;;;;;13.07;100.00;96442.38;5072715;28;20074;-79
2021/08/18 08:13:16;;;;;;;12.90;7.83;;;;;;;13.16;100.00;96436.09;5075897;28;20038;-77
2021/08/18 08:15:42;;;;;;;12.27;7.10;;;;;;;13.20;100.00;96440.03;5065908;28;20033;-80
2021/08/18 08:18:07;;;;;;;13.70;7.93;;;;;;;13.24;100.00;96435.28;5080412;28;20062;-78
2021/08/18 08:20:34;;;;;;;13.57;9.03;;;;;;;13.35;100.00;96442.84;5069190;28;20032;-78
2021/08/18 08:23:01;;;;;;;14.50;9.57;;;;;;;13.41;100.00;96446.59;5061332;28;20713;-79
2021/08/18 08:25:27;;;;;;;15.97;9.87;;;;;;;13.47;100.00;96437.16;5056078;28;20515;-80
2021/08/18 08:27:53;;;;;;;17.73;10.07;;;;;;;13.49;100.00;96432.53;5061493;28;20032;-78
2021/08/18 08:30:19;;;;;;;17.37;10.07;;;;;;;13.66;100.00;96429.63;5076226;28;20096;-79
2021/08/18 08:33:01;;;;;;;20.90;11.67;;;;;;;13.63;100.00;96429.16;5087488;28;20039;-79
2021/08/18 08:35:29;;;;;;;20.58;11.23;;;;;;;13.75;100.00;96434.88;5077672;28;20486;-80
2021/08/18 08:37:55;;;;;;;21.00;11.40;;;;;;;13.78;100.00;96437.16;5062308;28;20024;-77
2021/08/18 08:40:21;;;;;;;19.57;11.40;;;;;;;13.60;100.00;96434.78;5077519;28;20086;-77
2021/08/18 08:42:48;;;;;;;19.07;11.77;;;;;;;13.76;100.00;96450.56;5074731;28;20530;-80
2021/08/18 08:45:14;;;;;;;18.63;10.27;;;;;;;13.54;100.00;96448.69;5069214;28;20067;-80
2021/08/18 08:47:41;;;;;;;21.10;11.97;;;;;;;13.60;100.00;96446.19;5058710;28;20024;-80
2021/08/18 08:50:10;;;;;;;19.67;10.60;;;;;;;13.80;100.00;96446.56;5079109;28;20535;-80
2021/08/18 08:52:36;;;;;;;16.20;10.13;;;;;;;13.63;100.00;96434.44;5072338;28;20741;-78
2021/08/18 08:55:06;;;;;;;18.77;10.70;;;;;;;13.58;100.00;96440.25;5050723;28;20033;-77
2021/08/18 08:57:44;;;;;;;15.33;9.07;;;;;;;13.59;100.00;96438.44;5055344;28;20029;-79
2021/08/18 09:00:11;;;;;;;17.13;9.17;;;;;;;13.64;100.00;96441.38;5060809;28;20035;-80
2021/08/18 09:02:36;;;;;;;15.03;9.17;;;;;;;13.61;100.00;96441.72;5077749;28;20028;-80
2021/08/18 09:05:04;;;;;;;16.20;9.77;;;;;;;13.59;100.00;96443.72;5078820;28;20055;-80
2021/08/18 09:07:29;;;;;;;19.30;10.43;;;;;;;13.53;100.00;96444.41;5053553;28;20063;-80
2021/08/18 09:10:00;;;;;;;17.77;10.03;;;;;;;13.59;100.00;96443.72;5085069;28;20113;-79
2021/08/18 09:12:34;;;;;;;16.00;9.80;;;;;;;13.53;100.00;96447.06;5071871;28;20081;-80
2021/08/18 09:15:23;;;;;;;18.07;10.17;;;;;;;13.45;100.00;96447.91;5073607;28;20055;-80
2021/08/18 09:17:53;;;;;;;18.77;9.90;;;;;;;13.39;100.00;96459.16;5068493;28;20032;-80
2021/08/18 09:20:23;;;;;;;17.90;10.00;;;;;;;13.39;100.00;96453.88;5070926;28;20101;-80
2021/08/18 09:22:58;;;;;;;18.30;9.90;;;;;;;13.44;100.00;96452.34;5070637;28;20031;-80
2021/08/18 09:25:29;;;;;;;16.80;9.60;;;;;;;13.44;100.00;96452.34;5061074;28;20112;-78
2021/08/18 09:28:16;;;;;;;18.27;10.30;;;;;;;13.58;100.00;96442.06;5084980;28;20119;-79
2021/08/18 09:30:44;;;;;;;15.63;9.07;;;;;;;13.60;100.00;96445.38;5076062;28;20050;-78
2021/08/18 09:33:19;;;;;;;15.77;9.87;;;;;;;13.61;100.00;96452.28;5078644;28;20036;-77
2021/08/18 09:35:55;;;;;;;20.70;11.20;;;;;;;13.63;100.00;96452.94;5082399;28;20118;-79
2021/08/18 09:38:21;;;;;;;17.93;10.60;;;;;;;13.69;100.00;96449.63;5072742;28;20370;-81
2021/08/18 09:40:49;;;;;;;18.63;10.67;;;;;;;13.81;100.00;96448.22;5082757;28;20055;-80
2021/08/18 09:43:18;;;;;;;19.07;11.57;;;;;;;13.81;100.00;96453.50;5062755;28;20037;-80
2021/08/18 09:45:46;;;;;;;17.17;10.37;;;;;;;13.85;100.00;96451.34;5072609;28;20028;-79
2021/08/18 09:48:16;;;;;;;21.47;11.73;;;;;;;13.79;100.00;96460.78;5083697;28;20036;-83
2021/08/18 09:50:44;;;;;;;19.93;11.83;;;;;;;13.94;100.00;96454.75;5065304;28;20044;-81
2021/08/18 09:53:34;;;;;;;21.10;11.17;;;;;;;13.93;100.00;96450.47;5075253;28;20116;-80
2021/08/18 09:56:02;;;;;;;19.17;11.00;;;;;;;14.02;100.00;96457.38;5078916;28;20119;-81
2021/08/18 09:58:31;;;;;;;19.53;10.93;;;;;;;13.94;100.00;96462.69;5071978;28;20059;-81
2021/08/18 10:01:00;;;;;;;32.63;12.00;;;;;;;13.88;100.00;96459.75;5074632;28;20032;-82
2021/08/18 10:03:27;;;;;;;18.13;10.87;;;;;;;13.98;100.00;96454.22;5084913;28;20032;-81
2021/08/18 10:05:55;;;;;;;19.80;11.27;;;;;;;14.05;100.00;96457.84;5076570;28;20062;-81
2021/08/18 10:08:21;;;;;;;20.17;12.03;;;;;;;14.18;100.00;96459.88;5079951;28;20064;-82
2021/08/18 10:10:48;;;;;;;20.47;11.93;;;;;;;14.28;100.00;96451.72;5075251;28;20032;-81
2021/08/18 10:13:15;;;;;;;21.37;11.27;;;;;;;14.35;100.00;96455.28;5080757;28;20040;-82
2021/08/18 10:15:41;;;;;;;18.30;11.67;;;;;;;14.43;100.00;96465.00;5065628;28;20024;-81
2021/08/18 10:18:08;;;;;;;19.07;10.97;;;;;;;14.41;100.00;96461.69;5066967;28;20012;-81
2021/08/18 10:20:35;;;;;;;19.57;10.57;;;;;;;14.66;100.00;96462.38;5081067;28;20127;-81
2021/08/18 10:23:10;;;;;;;20.10;11.00;;;;;;;14.66;100.00;96451.78;5090829;28;20026;-81
2021/08/18 10:25:44;;;;;;;16.50;10.20;;;;;;;14.82;100.00;96446.31;5098111;28;20032;-81
2021/08/18 10:28:10;;;;;;;18.98;10.27;;;;;;;14.91;100.00;96450.53;5077243;28;20094;-78
2021/08/18 10:30:53;;;;;;;17.40;9.88;;;;;;;15.01;100.00;96450.28;5075002;28;20036;-82
2021/08/18 10:33:38;;;;;;;;;;;;;;;14.85;100.00;96459.19;5059125;28;20032;-82
2021/08/18 10:36:03;;;;;;;21.20;13.93;;;;;;;15.14;100.00;96455.75;5066742;28;19916;-81
2021/08/18 10:38:29;;;;;;;26.50;17.85;;;;;;;15.27;100.00;96457.78;5078144;28;20046;-81
2021/08/18 10:40:55;;;;;;;19.60;10.98;;;;;;;15.49;100.00;96450.72;5075590;28;20100;-80
2021/08/18 10:43:58;;;;;;;17.48;10.18;;;;;;;15.80;100.00;96450.53;5067480;28;20036;-81
2021/08/18 10:46:24;;;;;;;16.58;9.15;;;;;;;15.73;100.00;96447.81;5053236;28;20031;-82
2021/08/18 10:48:53;;;;;;;17.35;9.77;;;;;;;15.79;100.00;96448.88;5064849;28;20115;-82
2021/08/18 10:51:38;;;;;;;14.32;7.07;;;;;;;15.73;100.00;96450.44;5061046;28;20037;-81
2021/08/18 10:54:25;;;;;;;12.65;7.53;;;;;;;15.68;100.00;96452.00;5079815;28;20070;-82
2021/08/18 10:56:57;;;;;;;14.07;7.68;;;;;;;15.54;100.00;96457.09;5054817;28;20027;-81
2021/08/18 10:59:35;;;;;;;13.90;7.68;;;;;;;15.53;100.00;96449.34;5047666;28;20032;-82
2021/08/18 11:02:03;;;;;;;12.50;7.00;;;;;;;15.42;100.00;96447.16;5070880;28;20031;-82
2021/08/18 11:04:48;;;;;;;11.95;6.93;;;;;;;15.51;100.00;96454.81;5060292;28;20028;-81
2021/08/18 11:07:15;;;;;;;12.23;8.07;;;;;;;15.41;100.00;96448.16;5054787;28;20064;-81
2021/08/18 11:09:46;;;;;;;12.65;7.80;;;;;;;15.43;100.00;96448.81;5078655;28;20052;-82
2021/08/18 11:12:40;;;;;;;14.05;7.47;;;;;;;15.21;100.00;96450.56;5069941;28;20332;-82
2021/08/18 11:15:15;;;;;;;12.57;7.80;;;;;;;15.15;100.00;96445.97;5066675;28;20037;-82